El Cerrito, CA

8:44 PM PST on December 17, 2014 (GMT -0800)
near Huber Park | Change Station
CLOSE
Current Station
Personal Weather Station
Location: El Cerrito, CA
Elevation: 270 ft
Nearby Weather Stations

Elev 270 ft 37.91 °N, 122.29 °W | Updated 1 minute ago

Mostly Cloudy
Mostly Cloudy
50.4 °F
Feels Like 50.4 °F
N
0.0
Wind Variable Wind from North
Gusts 2.0 mph

Today
High -- | Low -- °F
--% Chance of Precip.
Yesterday
High -- | Low -- °F
Precip. -- in
7:19 AM 4:51 PM
Waning Crescent, 17% visible
Pressure 30.07 in
Visibility 10.0 miles
Clouds Few 4500 ft
Overcast 5000 ft
Dew Point 50 °F
Humidity 97%
Rainfall 0.17 in
Snow Depth Not available.
UV 0 out of 12
Pollen 1.30 out of 12
Air Quality Not available.
Flu Activity Not available.
METAR KOAK 180353Z 12011KT 10SM FEW045 OVC050 12/09 A3007 RMK AO2 RAB16E33 SLP181 P0000 T01170094

More Conditions Fewer Conditions

Pressure 30.07 in
Visibility 10.0 miles
Clouds Few 4500 ft
Overcast 5000 ft
Dew Point 50 °F
Humidity 97%
Rainfall 0.17 in
Snow Depth Not available.
UV 0 out of 12
Pollen 1.30 out of 12
Air Quality Not available.
Flu Activity Not available.
METAR KOAK 180353Z 12011KT 10SM FEW045 OVC050 12/09 A3007 RMK AO2 RAB16E33 SLP181 P0000 T01170094

More Conditions Fewer Conditions

10-Day Weather Forecast

Almanac

Astronomy

Dec. 17, 2014 Rise Set
Actual Time
Civil Twilight
Nautical Twilight
Astronomical Twilight
Moon
Length of Visible Light
Length of Day
Tomorrow will be .
, % of the Moon is Illuminated

Today's Extremes

State Highs State Lows

Community

WunderPhotos

Upload Photos

1,778,883 photos uploaded!

WunderBlogs® & News

Nearby

Air Quality

  Air Quality AQ Index Pollutant
Not available.

Snow Depth

Station Depth Elevation

Earthquake Activity

City Distance Mag. Time & Date
Minimum magnitude displayed is 2.5.

Coastal Water Temperatures

Place Temperature

Nearby Weather Stations